Molly Pitcher — WDI3781 — position and weather

sailwx.info

Track history (hours):
 
Tides and Currents Weather Stations Pressure Air Temp Water Temp Dewpoint Dewpoint Depression Visibility Wind Speed Wind Dir Waves Ship Positions

Molly Pitcher

Owner: Port Imperial Ferry Corp, Weehawken, NJ. More information available from US FCC via Universal Licensing System and Coast Guard Vessel Documentation Center.

Last reported at 2017-Dec-11 14:15 UTC. Time now 2017-Dec-12 14:22 UTC.
Position N 40°46' W 074°01'.

Length 33 m; draft 2 m.

Type: Passenger vessel. MMSI: 367691840.

Date/timePositionNaut miles runAvg speedWind from/ knotsBaromVisibWave heightAir tempDewpointWater temp
2017-Dec-11 14:15N 40°46' W 074°01'312.8
2017-Dec-11 14:00N 40°43' W 074°01'713.1
2017-Dec-11 13:31N 40°36' W 074°03'1015.2
2017-Dec-11 12:50N 40°26' W 074°05'1029.3
2017-Dec-11 12:31N 40°36' W 074°03'612.7
2017-Dec-11 12:01N 40°42' W 074°00'  
2017-Dec-08 23:00N 40°29' W 074°04'1428.6
2017-Dec-08 22:30N 40°42' W 074°00'3 5.5
2017-Dec-08 22:01N 40°40' W 074°02'1422.0
2017-Dec-08 21:23N 40°26' W 074°05'1128.9
2017-Dec-08 21:00N 40°37' W 074°03'612.3
2017-Dec-08 20:30N 40°43' W 074°01'3 5.6
2017-Dec-08 20:00N 40°46' W 074°00'1 1.5
2017-Dec-08 19:30N 40°46' W 074°01'0 0.0
2017-Dec-08 14:25N 40°46' W 074°01'4 8.7
2017-Dec-08 14:01N 40°43' W 074°02'5 8.9
2017-Dec-08 13:30N 40°38' W 074°03'1217.3
2017-Dec-08 12:47N 40°26' W 074°05'828.8
2017-Dec-08 12:30N 40°34' W 074°04'816.9
2017-Dec-08 12:01N 40°42' W 074°00'14 1.1
2017-Dec-07 23:01N 40°28' W 074°04'129.5
2017-Dec-07 23:00N 40°29' W 074°04'1427.8
2017-Dec-07 22:31N 40°42' W 074°00'3 6.0
2017-Dec-07 22:01N 40°40' W 074°03'1420.4
2017-Dec-07 21:20N 40°26' W 074°05'928.5
2017-Dec-07 21:01N 40°35' W 074°03'815.9
2017-Dec-07 20:30N 40°43' W 074°01'3 5.4
2017-Dec-07 19:59N 40°46' W 074°00'1 0.1
2017-Dec-07 14:24N 40°46' W 074°01'3 8.8
2017-Dec-07 14:00N 40°43' W 074°02'611.4
2017-Dec-07 13:31N 40°37' W 074°03'1117.7
2017-Dec-07 12:52N 40°26' W 074°05'1027.8
2017-Dec-07 12:31N 40°36' W 074°03'612.9
2017-Dec-07 12:00N 40°42' W 074°00'14 1.1
2017-Dec-06 23:02N 40°28' W 074°04'129.4
2017-Dec-06 22:59N 40°29' W 074°04'1326.3
2017-Dec-06 22:29N 40°42' W 074°00'3 6.3
2017-Dec-06 22:01N 40°40' W 074°03'1114.1
2017-Dec-06 21:14N 40°29' W 074°04'730.0
2017-Dec-06 21:00N 40°36' W 074°03'  
2017-Dec-01 23:08N 40°26' W 074°05'426.9
2017-Dec-01 23:00N 40°30' W 074°04'1325.9
2017-Dec-01 22:31N 40°42' W 074°00'2 4.7
2017-Dec-01 22:01N 40°40' W 074°02'1422.0
2017-Dec-01 21:21N 40°26' W 074°05'1028.7
2017-Dec-01 21:00N 40°36' W 074°03'714.6
2017-Dec-01 20:31N 40°43' W 074°01'3 5.4
2017-Dec-01 20:00N 40°46' W 074°00'1 0.1
2017-Dec-01 14:16N 40°46' W 074°01'  
Track history (hours):
 
Tides and Currents Weather Stations Pressure Air Temp Water Temp Dewpoint Dewpoint Depression Visibility Wind Speed Wind Dir Waves Ship Positions

Molly Pitcher

Owner: Port Imperial Ferry Corp, Weehawken, NJ. More information available from US FCC via Universal Licensing System and Coast Guard Vessel Documentation Center.

Last reported at 2017-Dec-11 14:15 UTC. Time now 2017-Dec-12 14:22 UTC.
Position N 40°46' W 074°01'.

Length 33 m; draft 2 m.

Type: Passenger vessel. MMSI: 367691840.

Date/timePositionNaut miles runAvg speedWind from/ knotsBaromVisibWave heightAir tempDewpointWater temp
2017-Dec-11 14:15N 40°46' W 074°01'312.8
2017-Dec-11 14:00N 40°43' W 074°01'713.1
2017-Dec-11 13:31N 40°36' W 074°03'1015.2
2017-Dec-11 12:50N 40°26' W 074°05'1029.3
2017-Dec-11 12:31N 40°36' W 074°03'612.7
2017-Dec-11 12:01N 40°42' W 074°00'  
2017-Dec-08 23:00N 40°29' W 074°04'1428.6
2017-Dec-08 22:30N 40°42' W 074°00'3 5.5
2017-Dec-08 22:01N 40°40' W 074°02'1422.0
2017-Dec-08 21:23N 40°26' W 074°05'1128.9
2017-Dec-08 21:00N 40°37' W 074°03'612.3
2017-Dec-08 20:30N 40°43' W 074°01'3 5.6
2017-Dec-08 20:00N 40°46' W 074°00'1 1.5
2017-Dec-08 19:30N 40°46' W 074°01'0 0.0
2017-Dec-08 14:25N 40°46' W 074°01'4 8.7
2017-Dec-08 14:01N 40°43' W 074°02'5 8.9
2017-Dec-08 13:30N 40°38' W 074°03'1217.3
2017-Dec-08 12:47N 40°26' W 074°05'828.8
2017-Dec-08 12:30N 40°34' W 074°04'816.9
2017-Dec-08 12:01N 40°42' W 074°00'14 1.1
2017-Dec-07 23:01N 40°28' W 074°04'129.5
2017-Dec-07 23:00N 40°29' W 074°04'1427.8
2017-Dec-07 22:31N 40°42' W 074°00'3 6.0
2017-Dec-07 22:01N 40°40' W 074°03'1420.4
2017-Dec-07 21:20N 40°26' W 074°05'928.5
2017-Dec-07 21:01N 40°35' W 074°03'815.9
2017-Dec-07 20:30N 40°43' W 074°01'3 5.4
2017-Dec-07 19:59N 40°46' W 074°00'1 0.1
2017-Dec-07 14:24N 40°46' W 074°01'3 8.8
2017-Dec-07 14:00N 40°43' W 074°02'611.4
2017-Dec-07 13:31N 40°37' W 074°03'1117.7
2017-Dec-07 12:52N 40°26' W 074°05'1027.8
2017-Dec-07 12:31N 40°36' W 074°03'612.9
2017-Dec-07 12:00N 40°42' W 074°00'14 1.1
2017-Dec-06 23:02N 40°28' W 074°04'129.4
2017-Dec-06 22:59N 40°29' W 074°04'1326.3
2017-Dec-06 22:29N 40°42' W 074°00'3 6.3
2017-Dec-06 22:01N 40°40' W 074°03'1114.1
2017-Dec-06 21:14N 40°29' W 074°04'730.0
2017-Dec-06 21:00N 40°36' W 074°03'  
2017-Dec-01 23:08N 40°26' W 074°05'426.9
2017-Dec-01 23:00N 40°30' W 074°04'1325.9
2017-Dec-01 22:31N 40°42' W 074°00'2 4.7
2017-Dec-01 22:01N 40°40' W 074°02'1422.0
2017-Dec-01 21:21N 40°26' W 074°05'1028.7
2017-Dec-01 21:00N 40°36' W 074°03'714.6
2017-Dec-01 20:31N 40°43' W 074°01'3 5.4
2017-Dec-01 20:00N 40°46' W 074°00'1 0.1
2017-Dec-01 14:16N 40°46' W 074°01'  

Dump ship's entire track history